Time;durP1;ratioP1;P1;durP2;ratioP2;P2;SDS_P1;SDS_P2;PMS_P1;PMS_P2;Temp;Humidity;BMP_temperature;BMP_pressure;BME280_temperature;BME280_humidity;BME280_pressure;Samples;Min_cycle;Max_cycle;Signal;HPM_P1;HPM_P2
2021/01/19 00:01:37;;;;;;;29.95;15.20;;;1.30;1.00;;;;;;5041464;28;20032;-82
2021/01/19 00:04:02;;;;;;;28.63;14.93;;;1.40;1.00;;;;;;5044572;28;20025;-82
2021/01/19 00:06:28;;;;;;;34.00;16.00;;;1.30;1.00;;;;;;5052845;28;20096;-82
2021/01/19 00:08:54;;;;;;;28.02;15.45;;;1.40;1.00;;;;;;5051929;28;20024;-82
2021/01/19 00:11:19;;;;;;;68.88;16.38;;;1.50;1.00;;;;;;5053427;28;20211;-82
2021/01/19 00:13:45;;;;;;;27.27;15.02;;;1.40;1.00;;;;;;5053766;28;20029;-82
2021/01/19 00:16:10;;;;;;;32.22;15.55;;;1.40;1.00;;;;;;5052018;28;20533;-80
2021/01/19 00:18:36;;;;;;;28.48;15.80;;;1.40;1.00;;;;;;5053273;28;20033;-81
2021/01/19 00:21:02;;;;;;;33.00;15.90;;;1.40;1.00;;;;;;5037974;28;20059;-82
2021/01/19 00:23:28;;;;;;;38.45;16.92;;;1.30;1.00;;;;;;5041768;28;20572;-82
2021/01/19 00:25:53;;;;;;;35.10;17.45;;;1.20;1.00;;;;;;5053244;28;20017;-82
2021/01/19 00:28:19;;;;;;;34.35;16.52;;;1.30;1.00;;;;;;5053045;28;20021;-82
2021/01/19 00:30:45;;;;;;;58.70;16.67;;;1.30;1.00;;;;;;5053094;28;20490;-82
2021/01/19 00:33:11;;;;;;;47.47;17.40;;;1.70;1.00;;;;;;5053011;28;20037;-82
2021/01/19 00:35:40;;;;;;;37.65;16.90;;;1.20;1.00;;;;;;5053279;28;20448;-81
2021/01/19 00:38:05;;;;;;;35.25;17.65;;;1.20;1.00;;;;;;5042310;28;20044;-81
2021/01/19 00:40:31;;;;;;;35.05;17.00;;;1.20;1.00;;;;;;5032823;28;20168;-82
2021/01/19 00:42:57;;;;;;;34.15;16.92;;;1.10;1.00;;;;;;5032948;28;20029;-82
2021/01/19 00:45:23;;;;;;;34.90;17.20;;;1.00;1.00;;;;;;5033049;28;20047;-82
2021/01/19 00:47:48;;;;;;;36.38;17.77;;;1.20;1.00;;;;;;5033070;28;20394;-82
2021/01/19 00:50:14;;;;;;;29.52;16.58;;;1.20;1.00;;;;;;5032957;28;20017;-82
2021/01/19 00:52:40;;;;;;;28.67;16.45;;;1.30;1.00;;;;;;5039520;28;20037;-82
2021/01/19 00:55:08;;;;;;;27.88;16.85;;;1.40;1.00;;;;;;5052494;28;20049;-82
2021/01/19 00:57:34;;;;;;;34.63;17.10;;;1.40;1.00;;;;;;5052088;28;20486;-82
2021/01/19 00:59:59;;;;;;;28.83;16.48;;;1.30;1.00;;;;;;5052359;28;20068;-82
2021/01/19 01:02:25;;;;;;;30.33;16.65;;;1.40;1.00;;;;;;5033648;28;20518;-82
2021/01/19 01:04:50;;;;;;;27.48;16.25;;;1.40;1.00;;;;;;5032615;28;20032;-82
2021/01/19 01:07:16;;;;;;;27.55;15.70;;;1.40;1.00;;;;;;5032161;28;20091;-82
2021/01/19 01:09:42;;;;;;;34.00;16.95;;;1.30;1.00;;;;;;5032691;28;20475;-82
2021/01/19 01:12:08;;;;;;;30.15;16.30;;;1.20;1.00;;;;;;5032526;28;20029;-82
2021/01/19 01:14:34;;;;;;;33.20;16.67;;;1.20;1.00;;;;;;5032655;28;20128;-82
2021/01/19 01:17:00;;;;;;;26.70;15.45;;;1.30;1.00;;;;;;5032577;28;20029;-81
2021/01/19 01:19:25;;;;;;;27.67;15.82;;;1.30;1.00;;;;;;5032055;28;20033;-82
2021/01/19 01:21:51;;;;;;;26.30;15.35;;;1.40;1.00;;;;;;5032629;28;20168;-82
2021/01/19 01:24:17;;;;;;;23.17;14.20;;;1.20;1.00;;;;;;5031284;28;20060;-82
2021/01/19 01:26:43;;;;;;;25.15;14.82;;;1.30;1.00;;;;;;5039047;28;20673;-82
2021/01/19 01:29:08;;;;;;;23.35;14.07;;;1.30;1.00;;;;;;5051875;28;20024;-82
2021/01/19 01:31:35;;;;;;;26.10;14.82;;;1.40;1.00;;;;;;5043221;28;20096;-82
2021/01/19 01:34:01;;;;;;;26.02;14.88;;;1.20;1.00;;;;;;5032256;28;20121;-82
2021/01/19 01:36:26;;;;;;;24.63;14.52;;;1.10;1.00;;;;;;5031117;28;20116;-82
2021/01/19 01:38:52;;;;;;;24.00;13.45;;;1.00;1.00;;;;;;5032452;28;20017;-82
2021/01/19 01:41:20;;;;;;;22.30;12.93;;;1.00;1.00;;;;;;5032140;28;20059;-82
2021/01/19 01:43:47;;;;;;;29.67;16.35;;;1.00;1.00;;;;;;5032218;28;20053;-82
2021/01/19 01:46:14;;;;;;;32.00;16.45;;;0.80;1.00;;;;;;5035761;28;20053;-82
2021/01/19 01:48:41;;;;;;;31.13;16.58;;;0.70;1.00;;;;;;5050619;28;20025;-82
2021/01/19 01:51:09;;;;;;;28.10;14.82;;;0.70;1.00;;;;;;5050796;28;20029;-82
2021/01/19 01:53:38;;;;;;;24.08;13.77;;;0.80;1.00;;;;;;5052205;28;20100;-82
2021/01/19 01:56:09;;;;;;;23.55;14.05;;;0.80;1.00;;;;;;5051934;28;20436;-82
2021/01/19 01:58:36;;;;;;;26.55;14.20;;;1.00;1.00;;;;;;5050654;28;20049;-82
2021/01/19 02:01:03;;;;;;;22.83;12.75;;;1.60;1.00;;;;;;5042714;28;20368;-82
2021/01/19 02:03:28;;;;;;;24.55;13.10;;;1.20;1.00;;;;;;5031562;28;20022;-82
2021/01/19 02:05:54;;;;;;;22.27;12.55;;;1.10;1.00;;;;;;5046223;28;20471;-82
2021/01/19 02:08:38;;;;;;;25.80;13.70;;;1.10;1.00;;;;;;5055874;28;20013;-82
2021/01/19 02:11:17;;;;;;;23.67;13.30;;;1.10;1.00;;;;;;5055723;28;20025;-82
2021/01/19 02:14:26;;;;;;;24.50;13.18;;;1.00;1.00;;;;;;5054231;28;20608;-82
2021/01/19 02:17:05;;;;;;;26.25;13.35;;;1.10;1.00;;;;;;5033361;28;20116;-81
2021/01/19 02:19:50;;;;;;;24.70;12.88;;;1.10;1.00;;;;;;5033047;28;20025;-81
2021/01/19 02:22:26;;;;;;;24.20;12.55;;;1.10;1.00;;;;;;5013549;28;20042;-81
2021/01/19 02:25:23;;;;;;;23.27;12.52;;;1.10;1.00;;;;;;5013616;28;20030;-81
2021/01/19 02:28:09;;;;;;;22.88;12.73;;;1.20;1.00;;;;;;5013491;28;20081;-81
2021/01/19 02:30:59;;;;;;;25.92;13.07;;;1.40;1.00;;;;;;5013609;28;20487;-81
2021/01/19 02:33:47;;;;;;;20.92;11.57;;;1.20;1.00;;;;;;5029582;28;20231;-81
2021/01/19 02:36:32;;;;;;;25.33;12.65;;;1.10;1.00;;;;;;5029183;28;20548;-82
2021/01/19 02:39:00;;;;;;;23.73;12.18;;;1.20;1.00;;;;;;5033275;28;20399;-82
2021/01/19 02:41:27;;;;;;;20.77;11.65;;;1.40;1.00;;;;;;5013242;28;20609;-82
2021/01/19 02:44:12;;;;;;;26.60;12.43;;;1.40;1.00;;;;;;5013292;28;20038;-82
2021/01/19 02:46:38;;;;;;;23.08;12.40;;;1.50;1.00;;;;;;5013192;28;20022;-82
2021/01/19 02:49:03;;;;;;;24.02;12.57;;;1.50;1.00;;;;;;5015360;28;20022;-82
2021/01/19 02:51:29;;;;;;;23.52;12.65;;;1.30;1.00;;;;;;5015395;28;20026;-82
2021/01/19 02:53:55;;;;;;;25.05;12.82;;;1.40;1.00;;;;;;5017327;28;20506;-82
2021/01/19 02:56:34;;;;;;;24.75;12.20;;;1.80;1.00;;;;;;5054947;28;20108;-82
2021/01/19 02:59:12;;;;;;;24.17;12.30;;;1.40;1.00;;;;;;5050899;28;20038;-82
2021/01/19 03:01:47;;;;;;;20.60;11.95;;;1.30;1.00;;;;;;5034536;28;20034;-82
2021/01/19 03:04:14;;;;;;;25.23;12.98;;;1.20;1.00;;;;;;5033647;28;20383;-82
2021/01/19 03:06:42;;;;;;;22.67;12.45;;;1.20;1.00;;;;;;5034845;28;20148;-82
2021/01/19 03:09:09;;;;;;;23.83;12.65;;;1.20;1.00;;;;;;5034725;28;20048;-82
2021/01/19 03:11:36;;;;;;;32.72;13.63;;;1.20;1.00;;;;;;5034840;28;20386;-82
2021/01/19 03:14:03;;;;;;;29.75;13.48;;;1.20;1.00;;;;;;5040116;28;20040;-82
2021/01/19 03:16:28;;;;;;;22.98;12.18;;;1.10;1.00;;;;;;5053828;28;20394;-82
2021/01/19 03:18:54;;;;;;;24.83;12.15;;;1.10;1.00;;;;;;5046435;28;20025;-82
2021/01/19 03:21:20;;;;;;;25.88;12.52;;;1.00;1.00;;;;;;5034376;28;20029;-82
2021/01/19 03:23:46;;;;;;;25.20;12.35;;;1.20;1.00;;;;;;5034464;28;20386;-82
2021/01/19 03:26:11;;;;;;;21.40;11.57;;;1.20;1.00;;;;;;5034406;28;20030;-82
2021/01/19 03:28:37;;;;;;;21.95;11.82;;;1.20;1.00;;;;;;5034340;28;20025;-82
2021/01/19 03:31:04;;;;;;;24.23;12.43;;;1.30;1.00;;;;;;5034152;28;20100;-82
2021/01/19 03:33:30;;;;;;;24.73;12.05;;;1.30;1.00;;;;;;5033462;28;20033;-82
2021/01/19 03:35:56;;;;;;;26.52;12.23;;;1.50;1.00;;;;;;5034255;28;20033;-82
2021/01/19 03:38:21;;;;;;;23.95;12.75;;;1.30;1.00;;;;;;5039839;28;20079;-82
2021/01/19 03:40:47;;;;;;;23.83;12.30;;;1.10;1.00;;;;;;5054012;28;20029;-82
2021/01/19 03:43:13;;;;;;;24.13;12.48;;;1.30;1.00;;;;;;5053857;28;20025;-82
2021/01/19 03:45:38;;;;;;;22.25;12.05;;;1.90;1.00;;;;;;5053815;28;20051;-82
2021/01/19 03:48:05;;;;;;;21.52;11.63;;;1.20;1.00;;;;;;5053834;28;20033;-82
2021/01/19 03:50:31;;;;;;;21.67;11.98;;;1.30;1.00;;;;;;5053891;28;20150;-82
2021/01/19 03:52:57;;;;;;;20.63;11.57;;;1.30;1.00;;;;;;5048983;28;20515;-82
2021/01/19 03:55:22;;;;;;;25.23;12.73;;;1.20;1.00;;;;;;5033799;28;20051;-82
2021/01/19 03:57:48;;;;;;;23.58;12.25;;;1.30;1.00;;;;;;5038443;28;20025;-82
2021/01/19 04:00:15;;;;;;;22.20;11.93;;;1.30;1.00;;;;;;5052097;28;20063;-82
2021/01/19 04:02:41;;;;;;;24.30;12.43;;;1.30;1.00;;;;;;5033674;28;20064;-82
2021/01/19 04:05:07;;;;;;;28.23;13.27;;;1.90;1.00;;;;;;5033801;28;20028;-82
2021/01/19 04:07:37;;;;;;;27.25;13.43;;;1.20;1.00;;;;;;5032377;28;20017;-82
2021/01/19 04:10:03;;;;;;;24.27;11.65;;;1.30;1.00;;;;;;5033611;28;20026;-82
2021/01/19 04:12:28;;;;;;;24.73;12.50;;;1.30;1.00;;;;;;5033545;28;20022;-82
2021/01/19 04:14:54;;;;;;;23.92;13.23;;;1.30;1.00;;;;;;5033195;28;20368;-82
2021/01/19 04:17:20;;;;;;;23.55;12.70;;;1.30;1.00;;;;;;5033502;28;20063;-82
2021/01/19 04:19:45;;;;;;;25.98;13.57;;;1.20;1.00;;;;;;5033405;28;20150;-82
2021/01/19 04:22:11;;;;;;;22.50;12.70;;;1.00;1.00;;;;;;5033360;28;20505;-82
2021/01/19 04:24:36;;;;;;;23.48;13.05;;;1.00;1.00;;;;;;5033266;28;20083;-82
2021/01/19 04:27:02;;;;;;;25.35;13.02;;;1.00;1.00;;;;;;5032533;28;20100;-82
2021/01/19 04:29:28;;;;;;;23.90;11.88;;;0.90;1.00;;;;;;5032795;28;20100;-82
2021/01/19 04:31:53;;;;;;;24.65;12.70;;;0.90;1.00;;;;;;5033023;28;20022;-82
2021/01/19 04:34:19;;;;;;;22.35;12.63;;;1.00;1.00;;;;;;5033135;28;20026;-82
2021/01/19 04:36:44;;;;;;;27.67;12.90;;;1.00;1.00;;;;;;5033186;28;20029;-82
2021/01/19 04:39:10;;;;;;;23.73;13.02;;;1.70;1.00;;;;;;5033096;28;20031;-82
2021/01/19 04:41:39;;;;;;;25.10;12.68;;;1.00;1.00;;;;;;5047920;28;20071;-82
2021/01/19 04:44:05;;;;;;;23.40;12.93;;;0.90;1.00;;;;;;5052522;28;20090;-82
2021/01/19 04:46:31;;;;;;;25.10;12.32;;;0.80;1.00;;;;;;5052818;28;20508;-82
2021/01/19 04:48:57;;;;;;;28.90;13.73;;;0.70;1.00;;;;;;5052897;28;20025;-82
2021/01/19 04:51:26;;;;;;;22.58;12.05;;;0.60;1.00;;;;;;5052668;28;20024;-82
2021/01/19 04:54:13;;;;;;;26.13;13.05;;;0.60;1.00;;;;;;5052639;28;20116;-82
2021/01/19 04:56:39;;;;;;;22.92;12.50;;;0.60;1.00;;;;;;5034493;28;20071;-82
2021/01/19 04:59:13;;;;;;;22.67;12.38;;;0.70;1.00;;;;;;5040196;28;20045;-82
2021/01/19 05:01:54;;;;;;;24.60;12.63;;;0.80;1.00;;;;;;5040123;28;20021;-82
2021/01/19 05:04:43;;;;;;;22.23;12.18;;;0.60;1.00;;;;;;5032790;28;20025;-82
2021/01/19 05:07:32;;;;;;;21.95;12.60;;;0.60;1.00;;;;;;5031277;28;20075;-82
2021/01/19 05:10:13;;;;;;;24.55;12.02;;;0.70;1.00;;;;;;5031390;28;20030;-82
2021/01/19 05:12:42;;;;;;;24.73;12.73;;;0.70;1.00;;;;;;5030871;28;20080;-82
2021/01/19 05:15:16;;;;;;;24.92;12.82;;;0.60;1.00;;;;;;5030747;28;20510;-82
2021/01/19 05:17:43;;;;;;;23.83;12.98;;;0.80;1.00;;;;;;5042971;28;20033;-82
2021/01/19 05:20:11;;;;;;;24.52;12.40;;;0.80;1.00;;;;;;5052520;28;20025;-82
2021/01/19 05:22:36;;;;;;;23.90;12.88;;;0.80;1.00;;;;;;5052156;28;20028;-82
2021/01/19 05:25:03;;;;;;;26.70;13.77;;;0.90;1.00;;;;;;5052508;28;20033;-82
2021/01/19 05:27:29;;;;;;;23.92;13.60;;;0.90;1.00;;;;;;5052010;28;20025;-82
2021/01/19 05:30:05;;;;;;;26.45;14.05;;;0.90;1.00;;;;;;5052129;28;20024;-82
2021/01/19 05:32:37;;;;;;;26.17;14.00;;;1.00;1.00;;;;;;5051153;28;20025;-82
2021/01/19 05:35:13;;;;;;;23.90;13.35;;;1.00;1.00;;;;;;5047060;28;20105;-82
2021/01/19 05:37:40;;;;;;;28.00;14.55;;;0.90;1.00;;;;;;5030926;28;20403;-82
2021/01/19 05:40:06;;;;;;;27.77;14.48;;;0.80;1.00;;;;;;5035826;28;20025;-82
2021/01/19 05:42:32;;;;;;;27.63;14.40;;;0.80;1.00;;;;;;5035836;28;20082;-82
2021/01/19 05:45:07;;;;;;;27.20;14.48;;;0.80;1.00;;;;;;5036447;28;20025;-82
2021/01/19 05:47:33;;;;;;;29.60;14.68;;;0.70;1.00;;;;;;5036116;28;20021;-82
2021/01/19 05:50:00;;;;;;;26.90;14.40;;;0.60;1.00;;;;;;5036159;28;20104;-81
2021/01/19 05:52:30;;;;;;;25.85;13.13;;;0.60;1.00;;;;;;5036169;28;20033;-82
2021/01/19 05:54:57;;;;;;;26.77;13.85;;;0.40;1.00;;;;;;5036010;28;20083;-82
2021/01/19 05:57:24;;;;;;;22.08;12.55;;;0.20;1.00;;;;;;5036112;28;20030;-82
2021/01/19 05:59:55;;;;;;;25.17;13.18;;;0.70;1.00;;;;;;5035820;28;20049;-82
2021/01/19 06:02:23;;;;;;;27.33;13.52;;;0.00;1.00;;;;;;5035993;28;20176;-82
2021/01/19 06:04:50;;;;;;;27.60;14.00;;;0.00;1.00;;;;;;5035829;28;20088;-82
2021/01/19 06:07:24;;;;;;;26.08;14.18;;;0.00;1.00;;;;;;5034724;28;20029;-82
2021/01/19 06:09:50;;;;;;;29.17;14.35;;;-0.20;1.00;;;;;;5053166;28;20013;-82
2021/01/19 06:12:18;;;;;;;25.67;14.15;;;-0.20;1.00;;;;;;5055783;28;20028;-82
2021/01/19 06:14:52;;;;;;;27.30;14.18;;;-0.10;1.00;;;;;;5055435;28;20032;-82
2021/01/19 06:17:22;;;;;;;27.60;14.05;;;-0.10;1.00;;;;;;5055535;28;20052;-82
2021/01/19 06:19:58;;;;;;;23.88;14.45;;;-0.10;1.00;;;;;;5055549;28;20017;-82
2021/01/19 06:22:25;;;;;;;24.15;13.10;;;-0.10;1.00;;;;;;5054787;28;20017;-82
2021/01/19 06:24:53;;;;;;;28.10;14.07;;;-0.20;1.00;;;;;;5055415;28;20025;-82
2021/01/19 06:27:22;;;;;;;28.02;14.13;;;0.00;1.00;;;;;;5043638;28;20387;-82
2021/01/19 06:30:02;;;;;;;24.83;13.35;;;-0.10;1.00;;;;;;5035399;28;20017;-82
2021/01/19 06:32:31;;;;;;;25.88;13.40;;;-0.10;1.00;;;;;;5035418;28;20037;-82
2021/01/19 06:35:07;;;;;;;25.00;13.52;;;-0.10;1.00;;;;;;5044913;28;20052;-82
2021/01/19 06:37:34;;;;;;;25.90;14.68;;;-0.20;1.00;;;;;;5055442;28;20104;-82
2021/01/19 06:40:03;;;;;;;27.48;14.88;;;-0.10;1.00;;;;;;5054817;28;20380;-82
2021/01/19 06:42:33;;;;;;;24.60;14.25;;;-0.30;1.00;;;;;;5054999;28;20482;-82
2021/01/19 06:45:01;;;;;;;24.25;13.70;;;-0.30;1.00;;;;;;5048396;28;20148;-82
2021/01/19 06:47:27;;;;;;;23.65;13.40;;;-0.40;1.00;;;;;;5035027;28;20021;-82
2021/01/19 06:49:53;;;;;;;24.25;13.32;;;-0.50;1.00;;;;;;5034402;28;20028;-82
2021/01/19 06:52:20;;;;;;;23.70;13.13;;;-0.40;1.00;;;;;;5035065;28;20033;-82
2021/01/19 06:55:02;;;;;;;21.98;13.18;;;-0.40;1.00;;;;;;5034539;28;20107;-82
2021/01/19 06:57:52;;;;;;;23.30;13.02;;;-0.50;1.00;;;;;;5035104;28;20088;-82
2021/01/19 07:00:22;;;;;;;24.98;14.18;;;-0.50;1.00;;;;;;5043420;28;20072;-82
2021/01/19 07:02:51;;;;;;;24.55;14.27;;;-0.50;1.00;;;;;;5034749;28;20021;-82
2021/01/19 07:05:22;;;;;;;27.67;15.10;;;-0.50;1.00;;;;;;5034932;28;20073;-82
2021/01/19 07:08:22;;;;;;;29.38;16.80;;;-0.50;1.00;;;;;;5034483;28;20021;-82
2021/01/19 07:11:40;;;;;;;30.05;17.92;;;-0.50;1.00;;;;;;5032966;28;20437;-82
2021/01/19 07:14:13;;;;;;;33.40;18.35;;;-0.60;1.00;;;;;;5034165;28;20446;-82
2021/01/19 07:16:54;;;;;;;25.85;15.40;;;-0.60;1.00;;;;;;5034518;28;20025;-82
2021/01/19 07:19:28;;;;;;;24.92;14.70;;;-0.50;1.00;;;;;;5034435;28;20057;-82
2021/01/19 07:22:04;;;;;;;21.67;13.43;;;-0.50;1.00;;;;;;5034099;28;20029;-82
2021/01/19 07:24:39;;;;;;;23.17;13.23;;;-0.50;1.00;;;;;;5034375;28;20495;-82
2021/01/19 07:27:10;;;;;;;24.55;14.45;;;-0.60;1.00;;;;;;5034365;28;20021;-82
2021/01/19 07:29:37;;;;;;;24.55;13.82;;;-0.50;1.00;;;;;;5034916;28;20045;-82
2021/01/19 07:32:14;;;;;;;25.52;13.18;;;-0.50;1.00;;;;;;5034037;28;20053;-81
2021/01/19 07:34:41;;;;;;;21.60;12.60;;;-0.50;1.00;;;;;;5034279;28;20028;-82
2021/01/19 07:37:08;;;;;;;24.67;13.73;;;-0.40;1.00;;;;;;5034071;28;20406;-82
2021/01/19 07:39:35;;;;;;;22.23;13.48;;;-0.40;1.00;;;;;;5034240;28;20029;-82
2021/01/19 07:42:13;;;;;;;25.67;13.80;;;-0.20;1.00;;;;;;5034115;28;20033;-82
2021/01/19 07:44:39;;;;;;;28.30;14.32;;;-0.10;1.00;;;;;;5033992;28;20364;-82
2021/01/19 07:47:15;;;;;;;23.85;13.73;;;-0.10;1.00;;;;;;5033650;28;20025;-82
2021/01/19 07:49:42;;;;;;;27.95;14.60;;;0.10;1.00;;;;;;5033688;28;20092;-82
2021/01/19 07:52:13;;;;;;;26.92;15.18;;;0.30;1.00;;;;;;5049142;28;20032;-82
2021/01/19 07:54:39;;;;;;;28.70;16.20;;;1.10;1.00;;;;;;5053618;28;20021;-82
2021/01/19 07:57:13;;;;;;;28.42;16.05;;;0.60;1.00;;;;;;5053710;28;20491;-82
2021/01/19 07:59:39;;;;;;;31.75;17.20;;;0.80;1.00;;;;;;5053510;28;20071;-82
2021/01/19 08:02:05;;;;;;;34.25;17.92;;;0.90;1.00;;;;;;5036320;28;20033;-82
2021/01/19 08:04:36;;;;;;;31.15;18.20;;;1.00;1.00;;;;;;5033654;28;20028;-82
2021/01/19 08:07:15;;;;;;;31.70;17.13;;;1.10;1.00;;;;;;5033131;28;20078;-82
2021/01/19 08:09:41;;;;;;;32.70;17.30;;;1.70;1.00;;;;;;5042375;28;20032;-82
2021/01/19 08:12:14;;;;;;;31.25;17.55;;;1.70;1.00;;;;;;5053568;28;20021;-82
2021/01/19 08:14:43;;;;;;;31.85;17.50;;;1.40;1.00;;;;;;5053603;28;20024;-82
2021/01/19 08:17:09;;;;;;;35.28;18.60;;;2.30;1.00;;;;;;5046248;28;20024;-82
2021/01/19 08:19:45;;;;;;;30.50;16.58;;;2.90;1.00;;;;;;5033550;28;20021;-82
2021/01/19 08:22:12;;;;;;;32.33;17.27;;;3.60;1.00;;;;;;5033073;28;20026;-82
2021/01/19 08:24:42;;;;;;;30.05;17.13;;;5.00;1.00;;;;;;5033191;28;20049;-82
2021/01/19 08:27:08;;;;;;;28.27;15.93;;;6.50;1.00;;;;;;5035029;28;20029;-82
2021/01/19 08:29:35;;;;;;;26.75;16.35;;;7.80;1.00;;;;;;5053255;28;20025;-82
2021/01/19 08:32:02;;;;;;;25.48;15.13;;;8.60;1.00;;;;;;5052893;28;20226;-82
2021/01/19 08:34:30;;;;;;;24.02;15.48;;;9.80;1.00;;;;;;5052913;28;20059;-82
2021/01/19 08:36:57;;;;;;;24.80;15.52;;;10.70;99.90;;;;;;5053061;28;20079;-82
2021/01/19 08:39:23;;;;;;;23.83;15.10;;;11.20;99.90;;;;;;5052999;28;20017;-82
2021/01/19 08:41:51;;;;;;;21.48;13.75;;;11.30;99.90;;;;;;5052135;28;20505;-82
2021/01/19 08:44:19;;;;;;;22.17;14.77;;;11.90;99.90;;;;;;5052849;28;20064;-82
2021/01/19 08:46:45;;;;;;;24.95;15.25;;;12.50;99.90;;;;;;5039916;28;20033;-82
2021/01/19 08:49:17;;;;;;;21.85;14.45;;;12.80;99.90;;;;;;5032650;28;20429;-82
2021/01/19 08:51:53;;;;;;;24.42;14.95;;;13.20;99.90;;;;;;5033036;28;20029;-82
2021/01/19 08:54:20;;;;;;;21.85;14.60;;;14.40;99.90;;;;;;5032872;28;20549;-82
2021/01/19 08:56:46;;;;;;;22.88;14.90;;;14.60;99.90;;;;;;5032836;28;20131;-82
2021/01/19 08:59:12;;;;;;;23.90;15.68;;;14.90;99.90;;;;;;5032403;28;20431;-82
2021/01/19 09:01:51;;;;;;;21.27;15.00;;;14.70;99.90;;;;;;5033577;28;20379;-82
2021/01/19 09:04:24;;;;;;;21.55;14.48;;;14.70;99.90;;;;;;5038085;28;20381;-80
2021/01/19 09:06:51;;;;;;;22.30;15.02;;;15.30;99.90;;;;;;5051385;28;20256;-80
2021/01/19 09:09:21;;;;;;;20.70;14.40;;;15.70;99.90;;;;;;5052571;28;20028;-80
2021/01/19 09:11:46;;;;;;;20.48;14.38;;;15.60;99.90;;;;;;5047629;28;20027;-79
2021/01/19 09:14:13;;;;;;;20.85;14.77;;;15.40;99.90;;;;;;5052046;28;20096;-80
2021/01/19 09:16:39;;;;;;;21.33;14.63;;;14.90;99.90;;;;;;5052459;28;20074;-80
2021/01/19 09:19:10;;;;;;;19.20;14.18;;;15.80;99.90;;;;;;5051940;28;20482;-81
2021/01/19 09:21:37;;;;;;;20.65;14.38;;;17.50;99.90;;;;;;5044695;28;20018;-81
2021/01/19 09:24:10;;;;;;;20.52;14.23;;;17.70;99.90;;;;;;5032211;28;20013;-81
2021/01/19 09:26:45;;;;;;;26.42;16.55;;;18.30;99.90;;;;;;5032389;28;20075;-81
2021/01/19 09:29:11;;;;;;;22.05;14.82;;;19.30;99.90;;;;;;5032321;28;20017;-80
2021/01/19 09:31:37;;;;;;;20.30;14.68;;;20.20;99.90;;;;;;5032507;28;20022;-80
2021/01/19 09:34:04;;;;;;;21.17;14.35;;;21.10;99.90;;;;;;5032093;28;20057;-81
2021/01/19 09:36:29;;;;;;;20.13;14.77;;;20.70;99.90;;;;;;5032256;28;20030;-80
2021/01/19 09:38:58;;;;;;;18.90;13.88;;;21.30;99.90;;;;;;5032248;28;20040;-81
2021/01/19 09:41:25;;;;;;;19.08;14.40;;;22.30;99.90;;;;;;5012565;28;20369;-81
2021/01/19 09:43:53;;;;;;;18.58;14.27;;;22.30;99.90;;;;;;5012438;28;20026;-81
2021/01/19 09:46:23;;;;;;;17.63;13.52;;;21.90;99.90;;;;;;5012635;28;20030;-81
2021/01/19 09:48:50;;;;;;;17.95;13.45;;;23.20;99.90;;;;;;5030539;28;20056;-80
2021/01/19 09:51:27;;;;;;;16.38;13.20;;;23.40;99.90;;;;;;5052024;28;20029;-80
2021/01/19 09:53:59;;;;;;;17.75;14.57;;;22.60;99.90;;;;;;5052122;28;20367;-81
2021/01/19 09:56:25;;;;;;;18.08;13.70;;;22.40;99.90;;;;;;5052055;28;20027;-81
2021/01/19 09:59:01;;;;;;;18.77;13.75;;;22.80;99.90;;;;;;5052048;28;20045;-81
2021/01/19 10:01:27;;;;;;;17.60;13.88;;;23.60;99.90;;;;;;5040601;28;20448;-81
2021/01/19 10:03:53;;;;;;;16.90;13.45;;;23.90;99.90;;;;;;5032058;28;20108;-81
2021/01/19 10:06:20;;;;;;;18.15;13.18;;;24.50;99.90;;;;;;5032135;28;20071;-80
2021/01/19 10:08:51;;;;;;;16.35;13.25;;;25.00;99.90;;;;;;5032072;28;20029;-80
2021/01/19 10:11:34;;;;;;;16.15;12.85;;;24.70;99.90;;;;;;5031932;28;20479;-81
2021/01/19 10:14:17;;;;;;;18.05;14.07;;;25.10;99.90;;;;;;5031801;28;20116;-81
2021/01/19 10:16:49;;;;;;;15.73;12.98;;;25.80;99.90;;;;;;5031593;28;20030;-81
2021/01/19 10:19:21;;;;;;;14.48;12.07;;;25.30;99.90;;;;;;5044901;28;20291;-81
2021/01/19 10:21:50;;;;;;;15.38;13.32;;;26.60;99.90;;;;;;5050835;28;20029;-81
2021/01/19 10:24:17;;;;;;;16.33;13.05;;;26.40;99.90;;;;;;5051720;28;20378;-81
2021/01/19 10:27:02;;;;;;;17.73;13.32;;;26.70;99.90;;;;;;5054465;28;20041;-80
2021/01/19 10:29:42;;;;;;;18.38;14.90;;;27.30;99.90;;;;;;5055574;28;20420;-80
2021/01/19 10:32:16;;;;;;;16.77;13.43;;;26.50;99.90;;;;;;5055094;28;20056;-80
2021/01/19 10:34:47;;;;;;;18.48;14.82;;;25.70;99.90;;;;;;5055402;28;20107;-83
2021/01/19 10:37:14;;;;;;;16.95;14.75;;;25.80;99.90;;;;;;5054499;28;20048;-83
2021/01/19 10:39:56;;;;;;;17.40;14.20;;;26.80;99.90;;;;;;5055483;28;20025;-81
2021/01/19 10:42:27;;;;;;;17.88;14.68;;;27.30;99.90;;;;;;5055050;28;20547;-81
2021/01/19 10:44:57;;;;;;;16.20;14.05;;;26.90;99.90;;;;;;5055320;28;20025;-80
2021/01/19 10:47:24;;;;;;;15.40;12.75;;;28.00;99.90;;;;;;5055188;28;20049;-81
2021/01/19 10:49:49;;;;;;;16.08;13.00;;;27.50;99.90;;;;;;5055147;28;20056;-81
2021/01/19 10:52:15;;;;;;;15.65;12.18;;;27.70;99.90;;;;;;5037917;28;20049;-81
2021/01/19 10:54:40;;;;;;;15.07;12.45;;;27.80;99.90;;;;;;5039061;28;20047;-81
2021/01/19 10:57:08;;;;;;;14.98;12.98;;;27.20;99.90;;;;;;5053072;28;20415;-81
2021/01/19 10:59:34;;;;;;;14.77;12.40;;;26.60;99.90;;;;;;5054274;28;20422;-81
2021/01/19 11:02:00;;;;;;;15.85;12.77;;;27.40;99.90;;;;;;5038396;28;20540;-81
2021/01/19 11:04:26;;;;;;;14.27;12.30;;;25.90;99.90;;;;;;5034239;28;20022;-81
2021/01/19 11:06:52;;;;;;;14.68;12.07;;;26.20;99.90;;;;;;5034285;28;20032;-80
2021/01/19 11:09:18;;;;;;;13.93;12.38;;;26.30;99.90;;;;;;5034057;28;20033;-80
2021/01/19 11:11:43;;;;;;;12.80;11.25;;;26.50;99.90;;;;;;5034568;28;20437;-80
2021/01/19 11:14:09;;;;;;;13.13;11.38;;;26.90;99.90;;;;;;5033825;28;20037;-80
2021/01/19 11:16:38;;;;;;;13.50;10.30;;;25.80;99.90;;;;;;5034226;28;20502;-80
2021/01/19 11:19:06;;;;;;;14.43;10.38;;;26.10;99.90;;;;;;5034471;28;20159;-80
2021/01/19 11:21:33;;;;;;;12.02;9.88;;;26.10;99.90;;;;;;5033992;28;20030;-80
2021/01/19 11:24:00;;;;;;;11.52;10.32;;;26.40;99.90;;;;;;5033516;28;20017;-80
2021/01/19 11:26:26;;;;;;;10.90;9.30;;;25.50;99.90;;;;;;5014294;28;20029;-79
2021/01/19 11:28:51;;;;;;;10.55;9.25;;;26.10;99.90;;;;;;5048219;28;20036;-79
2021/01/19 11:31:26;;;;;;;11.48;8.77;;;27.00;99.90;;;;;;5052451;28;20112;-80
2021/01/19 11:33:52;;;;;;;10.13;8.43;;;26.10;99.90;;;;;;5053705;28;20029;-80
2021/01/19 11:36:29;;;;;;;13.40;8.90;;;26.50;99.90;;;;;;5052036;28;20075;-80
2021/01/19 11:38:56;;;;;;;10.38;8.48;;;26.30;99.90;;;;;;5053784;28;20053;-80
2021/01/19 11:41:27;;;;;;;8.68;7.78;;;26.70;99.90;;;;;;5053610;28;20036;-80
2021/01/19 11:43:53;;;;;;;8.30;7.35;;;27.20;99.90;;;;;;5033017;28;20047;-80
2021/01/19 11:46:27;;;;;;;8.95;8.02;;;27.30;99.90;;;;;;5033555;28;20030;-80
2021/01/19 11:48:54;;;;;;;8.85;7.22;;;26.40;99.90;;;;;;5033976;28;20032;-80
2021/01/19 11:51:22;;;;;;;8.45;7.53;;;26.70;99.90;;;;;;5033384;28;20517;-80
2021/01/19 11:53:49;;;;;;;7.65;6.85;;;26.30;99.90;;;;;;5033435;28;20040;-80
2021/01/19 11:56:16;;;;;;;9.57;6.85;;;25.80;99.90;;;;;;5033346;28;20050;-80
2021/01/19 11:58:43;;;;;;;9.10;7.20;;;26.30;99.90;;;;;;5042276;28;20105;-80
2021/01/19 12:01:15;;;;;;;8.60;7.32;;;27.40;99.90;;;;;;5042762;28;20116;-81
2021/01/19 12:03:41;;;;;;;9.57;7.25;;;27.00;99.90;;;;;;5033270;28;20025;-81
2021/01/19 12:06:06;;;;;;;9.45;7.18;;;26.80;99.90;;;;;;5045989;28;20032;-81
2021/01/19 12:08:32;;;;;;;10.75;7.55;;;28.20;99.90;;;;;;5053068;28;20056;-79
2021/01/19 12:10:58;;;;;;;11.02;8.35;;;28.00;99.90;;;;;;5053056;28;20028;-80
2021/01/19 12:13:24;;;;;;;10.65;8.85;;;28.20;99.90;;;;;;5052466;28;20032;-80
2021/01/19 12:15:50;;;;;;;8.63;7.63;;;27.80;99.90;;;;;;5053198;28;20021;-80
2021/01/19 12:18:16;;;;;;;9.55;6.88;;;28.10;99.90;;;;;;5053306;28;20398;-80
2021/01/19 12:20:41;;;;;;;11.65;7.22;;;28.00;99.90;;;;;;5051256;28;20102;-81
2021/01/19 12:23:07;;;;;;;9.70;7.18;;;28.00;99.90;;;;;;5049033;28;20494;-80
2021/01/19 12:25:33;;;;;;;8.95;7.25;;;27.90;99.90;;;;;;5032821;28;20478;-80
2021/01/19 12:28:01;;;;;;;14.15;6.53;;;28.20;99.90;;;;;;5032379;28;20437;-81
2021/01/19 12:30:26;;;;;;;9.00;6.60;;;28.40;99.90;;;;;;5032933;28;20029;-82
2021/01/19 12:32:52;;;;;;;9.65;6.72;;;27.90;99.90;;;;;;5032870;28;20036;-80
2021/01/19 12:35:18;;;;;;;10.82;6.85;;;28.00;99.90;;;;;;5033118;28;20029;-80
2021/01/19 12:37:44;;;;;;;13.23;6.65;;;28.10;99.90;;;;;;5037803;28;20021;-81
2021/01/19 12:40:10;;;;;;;8.85;6.47;;;27.90;99.90;;;;;;5053018;28;20021;-81
2021/01/19 12:42:36;;;;;;;7.97;5.72;;;28.20;99.90;;;;;;5040547;28;20060;-81
2021/01/19 12:45:02;;;;;;;9.50;6.22;;;27.30;99.90;;;;;;5032959;28;20053;-81
2021/01/19 12:47:28;;;;;;;6.45;5.38;;;27.60;99.90;;;;;;5032940;28;20450;-81
2021/01/19 12:49:53;;;;;;;8.32;4.75;;;27.20;99.90;;;;;;5032557;28;20024;-81
2021/01/19 12:52:19;;;;;;;6.78;4.28;;;26.00;99.90;;;;;;5032910;28;20483;-81